createdAt,value
2022-08-09T00:00:58.842Z,99.90
2022-08-09T00:06:15.774Z,99.90
2022-08-09T00:11:25.096Z,99.90
2022-08-09T00:16:26.336Z,99.90
2022-08-09T00:21:26.329Z,99.90
2022-08-09T00:26:33.006Z,99.90
2022-08-09T00:31:57.075Z,99.90
2022-08-09T00:36:45.801Z,99.90
2022-08-09T00:44:11.019Z,99.90
2022-08-09T00:47:05.142Z,99.90
2022-08-09T00:52:17.671Z,99.90
2022-08-09T00:57:24.702Z,99.90
2022-08-09T01:02:23.906Z,99.90
2022-08-09T01:08:00.087Z,99.90
2022-08-09T01:12:51.305Z,99.90
2022-08-09T01:18:01.167Z,99.90
2022-08-09T01:24:02.239Z,99.90
2022-08-09T01:28:26.119Z,99.90
2022-08-09T01:33:34.646Z,99.90
2022-08-09T01:38:46.322Z,99.90
2022-08-09T01:43:55.043Z,99.90
2022-08-09T01:49:14.692Z,99.90
2022-08-09T01:54:21.394Z,99.90
2022-08-09T01:59:32.439Z,99.90
2022-08-09T02:04:37.388Z,99.90
2022-08-09T02:09:59.167Z,99.90
2022-08-09T02:15:02.358Z,99.90
2022-08-09T02:20:09.850Z,99.90
2022-08-09T02:25:18.875Z,99.90
2022-08-09T02:30:26.406Z,99.90
2022-08-09T02:36:02.888Z,99.90
2022-08-09T02:40:43.721Z,99.90
2022-08-09T02:45:50.923Z,99.90
2022-08-09T02:50:59.397Z,99.90
2022-08-09T02:56:09.391Z,99.90
2022-08-09T03:01:21.802Z,99.90
2022-08-09T03:06:27.695Z,99.90
2022-08-09T03:12:05.856Z,99.90
2022-08-09T03:16:47.492Z,99.90
2022-08-09T03:21:52.912Z,99.90
2022-08-09T03:26:58.743Z,99.90
2022-08-09T03:32:07.167Z,99.90
2022-08-09T03:37:54.176Z,99.90
2022-08-09T03:42:26.275Z,99.90
2022-08-09T03:47:28.687Z,99.90
2022-08-09T03:52:36.603Z,99.90
2022-08-09T03:57:53.400Z,99.90
2022-08-09T04:02:53.502Z,99.90
2022-08-09T04:07:59.335Z,99.90
2022-08-09T04:13:08.908Z,99.90
2022-08-09T04:18:16.426Z,99.90
2022-08-09T04:23:24.864Z,99.90
2022-08-09T04:28:34.549Z,99.90
2022-08-09T04:33:52.234Z,99.90
2022-08-09T04:38:46.253Z,99.90
2022-08-09T04:44:06.444Z,99.90
2022-08-09T04:49:03.111Z,99.90
2022-08-09T04:54:08.587Z,99.90
2022-08-09T04:59:18.582Z,99.90
2022-08-09T05:04:30.949Z,99.90
2022-08-09T05:09:45.301Z,99.90
2022-08-09T05:14:41.123Z,99.90
2022-08-09T05:19:47.149Z,99.90
2022-08-09T05:24:57.211Z,99.90
2022-08-09T05:30:03.494Z,99.90
2022-08-09T05:35:09.697Z,99.90
2022-08-09T05:40:16.115Z,99.90
2022-08-09T05:45:21.862Z,99.90
2022-08-09T05:50:49.230Z,99.90
2022-08-09T05:55:36.389Z,99.90
2022-08-09T06:00:42.699Z,99.90
2022-08-09T06:05:57.143Z,99.90
2022-08-09T06:10:56.172Z,99.90
2022-08-09T06:16:04.678Z,99.90
2022-08-09T06:21:10.677Z,99.90
2022-08-09T06:26:20.517Z,99.90
2022-08-09T06:31:30.482Z,99.90
2022-08-09T06:36:32.132Z,99.90
2022-08-09T06:41:56.744Z,99.90
2022-08-09T06:46:45.663Z,99.90
2022-08-09T06:51:51.045Z,99.90
2022-08-09T06:56:56.749Z,99.90
2022-08-09T07:02:04.407Z,99.90
2022-08-09T07:07:12.024Z,99.90
2022-08-09T07:12:18.649Z,99.90
2022-08-09T07:17:24.846Z,99.90
2022-08-09T07:22:34.998Z,99.90
2022-08-09T07:27:43.174Z,99.90
2022-08-09T07:32:48.584Z,99.90
2022-08-09T07:37:59.387Z,99.90
2022-08-09T07:43:03.847Z,98.10
2022-08-09T07:48:28.898Z,96.40
2022-08-09T07:53:36.246Z,93.50
2022-08-09T07:58:27.201Z,93.40
2022-08-09T08:03:32.612Z,91.00
2022-08-09T08:08:59.857Z,91.40
2022-08-09T08:13:56.642Z,90.40
2022-08-09T08:18:52.204Z,88.50
2022-08-09T08:23:57.668Z,85.70
2022-08-09T08:29:04.615Z,83.90
2022-08-09T08:34:09.960Z,82.10
2022-08-09T08:39:17.392Z,79.10
2022-08-09T08:44:27.311Z,77.10
2022-08-09T08:49:38.784Z,75.90
2022-08-09T08:54:40.504Z,77.70
2022-08-09T08:59:47.228Z,74.60
2022-08-09T09:04:54.556Z,74.90
2022-08-09T09:10:02.699Z,73.20
2022-08-09T09:15:08.216Z,72.50
2022-08-09T09:20:16.326Z,72.60
2022-08-09T09:26:04.238Z,67.40
2022-08-09T09:30:58.044Z,65.40
2022-08-09T09:36:19.901Z,67.30
2022-08-09T09:41:33.093Z,66.80
2022-08-09T09:46:42.263Z,65.20
2022-08-09T09:51:47.915Z,61.60
2022-08-09T09:58:03.665Z,60.80
2022-08-09T10:02:02.681Z,58.00
2022-08-09T10:07:30.115Z,58.20
2022-08-09T10:12:43.717Z,56.10
2022-08-09T10:17:56.063Z,55.50
2022-08-09T10:23:00.768Z,55.60
2022-08-09T10:28:07.710Z,54.10
2022-08-09T10:34:04.828Z,52.30
2022-08-09T10:38:43.285Z,51.10
2022-08-09T10:43:36.146Z,51.00
2022-08-09T10:48:40.734Z,49.90
2022-08-09T10:54:05.226Z,49.90
2022-08-09T10:59:31.823Z,52.00
2022-08-09T11:04:38.416Z,54.70
2022-08-09T11:09:48.942Z,53.60
2022-08-09T11:15:03.105Z,56.80
2022-08-09T11:20:22.330Z,57.20
2022-08-09T11:25:25.910Z,57.00
2022-08-09T11:30:32.290Z,58.40
2022-08-09T11:35:51.807Z,55.90
2022-08-09T11:40:56.978Z,53.40
2022-08-09T11:46:03.637Z,51.70
2022-08-09T11:52:48.768Z,51.00
2022-08-09T11:56:21.029Z,51.30
2022-08-09T12:02:16.359Z,54.70
2022-08-09T12:06:56.533Z,55.60
2022-08-09T12:12:13.099Z,58.80
2022-08-09T12:17:28.269Z,60.60
2022-08-09T12:22:26.122Z,62.20
2022-08-09T12:28:58.185Z,63.30
2022-08-09T12:32:40.883Z,64.10
2022-08-09T12:37:51.788Z,64.20
2022-08-09T12:42:53.343Z,61.80
2022-08-09T12:47:59.363Z,63.00
2022-08-09T12:53:18.367Z,64.60
2022-08-09T12:58:24.013Z,67.80
2022-08-09T13:03:53.962Z,70.10
2022-08-09T13:08:42.000Z,72.50
2022-08-09T13:14:42.858Z,70.60
2022-08-09T13:18:55.946Z,67.80
2022-08-09T13:24:44.312Z,67.40
2022-08-09T13:29:28.568Z,69.20
2022-08-09T13:34:29.052Z,71.00
2022-08-09T13:41:54.254Z,71.00
2022-08-09T13:44:48.658Z,71.50
2022-08-09T13:49:56.118Z,72.40
2022-08-09T13:55:04.579Z,71.60
2022-08-09T14:00:15.717Z,71.60
2022-08-09T14:05:59.859Z,71.80
2022-08-09T14:10:29.112Z,70.60
2022-08-09T14:16:08.971Z,70.20
2022-08-09T14:20:42.838Z,70.00
2022-08-09T14:25:52.016Z,67.20
2022-08-09T14:30:57.870Z,65.30
2022-08-09T14:36:12.039Z,67.20
2022-08-09T14:41:23.923Z,63.70
2022-08-09T14:47:00.906Z,63.80
2022-08-09T14:51:24.929Z,64.00
2022-08-09T14:56:32.639Z,64.20
2022-08-09T15:01:38.692Z,64.30
2022-08-09T15:06:49.758Z,65.00
2022-08-09T15:11:52.245Z,72.00
2022-08-09T15:16:57.977Z,76.40
2022-08-09T15:22:03.640Z,82.50
2022-08-09T15:27:09.126Z,86.70
2022-08-09T15:32:29.101Z,91.40
2022-08-09T15:37:57.147Z,89.60
2022-08-09T15:42:48.498Z,87.00
2022-08-09T15:48:05.050Z,86.20
2022-08-09T15:53:06.654Z,85.20
2022-08-09T15:58:07.959Z,90.80
2022-08-09T16:03:18.873Z,90.80
2022-08-09T16:08:29.529Z,90.20
2022-08-09T16:14:03.664Z,88.00
2022-08-09T16:18:36.438Z,82.10
2022-08-09T16:23:50.844Z,84.90
2022-08-09T16:28:50.724Z,86.10
2022-08-09T16:34:02.616Z,84.60
2022-08-09T16:39:05.713Z,85.30
2022-08-09T16:44:13.878Z,85.40
2022-08-09T16:50:26.777Z,84.20
2022-08-09T16:54:34.339Z,83.10
2022-08-09T16:59:34.613Z,82.00
2022-08-09T17:04:40.896Z,79.50
2022-08-09T17:09:47.467Z,78.80
2022-08-09T17:14:57.642Z,79.80
2022-08-09T17:20:29.122Z,78.40
2022-08-09T17:25:11.542Z,80.70
2022-08-09T17:30:19.764Z,85.50
2022-08-09T17:35:25.228Z,90.50
2022-08-09T17:40:32.675Z,96.40
2022-08-09T17:46:03.040Z,99.90
2022-08-09T17:50:56.293Z,99.90
2022-08-09T17:56:04.755Z,99.90
2022-08-09T18:01:09.444Z,99.90
2022-08-09T18:06:31.329Z,99.90
2022-08-09T18:11:23.911Z,99.90
2022-08-09T18:16:30.250Z,99.90
2022-08-09T18:21:41.546Z,99.90
2022-08-09T18:26:46.375Z,99.90
2022-08-09T18:31:55.665Z,99.90
2022-08-09T18:37:00.064Z,99.90
2022-08-09T18:42:09.069Z,99.90
2022-08-09T18:47:17.552Z,99.90
2022-08-09T18:52:28.599Z,99.90
2022-08-09T18:57:43.268Z,99.90
2022-08-09T19:02:36.074Z,99.90
2022-08-09T19:07:59.399Z,99.90
2022-08-09T19:12:56.584Z,99.90
2022-08-09T19:17:58.613Z,99.90
2022-08-09T19:23:05.411Z,99.90
2022-08-09T19:28:13.576Z,99.90
2022-08-09T19:33:22.972Z,99.90
2022-08-09T19:38:31.907Z,99.90
2022-08-09T19:44:01.531Z,99.90
2022-08-09T19:49:01.036Z,99.90
2022-08-09T19:53:52.325Z,99.90
2022-08-09T19:59:39.439Z,99.90
2022-08-09T20:04:25.191Z,99.90
2022-08-09T20:09:43.620Z,99.90
2022-08-09T20:14:24.279Z,99.90
2022-08-09T20:19:47.407Z,99.90
2022-08-09T20:24:40.940Z,99.90
2022-08-09T20:29:48.030Z,99.90
2022-08-09T20:34:54.645Z,99.90
2022-08-09T20:40:17.285Z,99.90
2022-08-09T20:45:59.668Z,99.90
2022-08-09T20:50:46.430Z,99.90
2022-08-09T20:55:27.192Z,99.90
2022-08-09T21:00:33.589Z,99.90
2022-08-09T21:05:54.619Z,99.90
2022-08-09T21:10:47.375Z,99.90
2022-08-09T21:15:55.280Z,99.90
2022-08-09T21:21:02.620Z,99.90
2022-08-09T21:26:09.638Z,99.90
2022-08-09T21:31:17.221Z,99.90
2022-08-09T21:36:29.144Z,99.90
2022-08-09T21:42:06.016Z,99.90
2022-08-09T21:46:42.537Z,99.90
2022-08-09T21:51:49.457Z,99.90
2022-08-09T21:56:57.699Z,99.90
2022-08-09T22:02:03.602Z,99.90
2022-08-09T22:07:09.264Z,99.90
2022-08-09T22:12:18.314Z,99.90
2022-08-09T22:17:23.260Z,99.90
2022-08-09T22:22:29.970Z,99.90
2022-08-09T22:27:36.239Z,99.90
2022-08-09T22:32:42.251Z,99.90
2022-08-09T22:37:47.873Z,99.90
2022-08-09T22:42:54.975Z,99.90
2022-08-09T22:48:13.131Z,99.90
2022-08-09T22:53:12.321Z,99.90
2022-08-09T22:58:20.205Z,99.90
2022-08-09T23:04:04.340Z,99.90
2022-08-09T23:08:57.665Z,99.90
2022-08-09T23:14:10.105Z,99.90
2022-08-09T23:19:14.847Z,99.90
2022-08-09T23:24:34.821Z,99.90
2022-08-09T23:30:08.661Z,99.90
2022-08-09T23:35:17.145Z,99.90
2022-08-09T23:40:22.597Z,99.90
2022-08-09T23:45:36.428Z,99.90
2022-08-09T23:51:12.115Z,99.90
2022-08-09T23:56:52.508Z,99.90
